Time;durP1;ratioP1;P1;durP2;ratioP2;P2;SDS_P1;SDS_P2;PMS_P1;PMS_P2;Temp;Humidity;BMP_temperature;BMP_pressure;BME280_temperature;BME280_humidity;BME280_pressure;Samples;Min_cycle;Max_cycle;Signal;HPM_P1;HPM_P2
2023/10/20 00:00:16;;;;;;;0.93;0.93;;;;;;;3.84;100.00;98569.63;4731888;30;20078;-77
2023/10/20 00:02:47;;;;;;;0.80;0.80;;;;;;;3.83;100.00;98576.81;4703113;30;20448;-78
2023/10/20 00:05:15;;;;;;;0.90;0.90;;;;;;;3.81;100.00;98576.22;4711708;30;20061;-79
2023/10/20 00:07:43;;;;;;;0.80;0.80;;;;;;;3.77;100.00;98588.31;4699332;30;20152;-79
2023/10/20 00:10:12;;;;;;;0.90;0.90;;;;;;;3.73;100.00;98588.97;4689713;30;20054;-77
2023/10/20 00:12:42;;;;;;;0.80;0.80;;;;;;;3.72;100.00;98582.81;4704346;30;20057;-79
2023/10/20 00:15:14;;;;;;;0.80;0.80;;;;;;;3.71;100.00;98578.50;4704045;30;20053;-80
2023/10/20 00:17:47;;;;;;;0.90;0.90;;;;;;;3.73;100.00;98579.13;4667838;30;20053;-79
2023/10/20 00:20:17;;;;;;;0.85;0.85;;;;;;;3.71;100.00;98575.03;4685145;30;20084;-79
2023/10/20 00:22:46;;;;;;;0.90;0.90;;;;;;;3.66;100.00;98587.13;4666277;30;20058;-79
2023/10/20 00:25:14;;;;;;;0.90;0.90;;;;;;;3.65;100.00;98582.84;4662096;30;20446;-79
2023/10/20 00:27:42;;;;;;;0.80;0.80;;;;;;;3.69;100.00;98584.03;4633728;30;20066;-79
2023/10/20 00:30:11;;;;;;;0.90;0.90;;;;;;;3.64;100.00;98591.84;4659361;30;20061;-78
2023/10/20 00:32:43;;;;;;;0.90;0.90;;;;;;;3.62;100.00;98585.09;4687604;30;20058;-79
2023/10/20 00:35:15;;;;;;;0.90;0.90;;;;;;;3.65;100.00;98588.19;4684531;30;20069;-78
2023/10/20 00:37:42;;;;;;;0.80;0.80;;;;;;;3.69;100.00;98583.22;4672902;30;20108;-79
2023/10/20 00:40:13;;;;;;;0.80;0.80;;;;;;;3.69;100.00;98583.22;4687220;30;20054;-79
2023/10/20 00:42:41;;;;;;;0.80;0.80;;;;;;;3.69;100.00;98581.38;4684923;30;20153;-79
2023/10/20 00:45:19;;;;;;;0.90;0.90;;;;;;;3.71;100.00;98581.19;4683379;30;20570;-79
2023/10/20 00:47:48;;;;;;;0.88;0.88;;;;;;;3.70;100.00;98574.22;4684417;30;20431;-78
2023/10/20 00:50:17;;;;;;;0.90;0.90;;;;;;;3.69;100.00;98570.69;4684625;30;20431;-78
2023/10/20 00:52:49;;;;;;;0.80;0.80;;;;;;;3.71;100.00;98578.50;4684435;30;20087;-78
2023/10/20 00:55:19;;;;;;;0.90;0.90;;;;;;;3.70;100.00;98574.22;4672739;30;20057;-80
2023/10/20 00:57:47;;;;;;;0.80;0.80;;;;;;;3.73;100.00;98571.13;4687695;30;20122;-79
2023/10/20 01:00:17;;;;;;;0.90;0.90;;;;;;;3.74;100.00;98585.28;4699580;30;20058;-79
2023/10/20 01:02:46;;;;;;;0.80;0.80;;;;;;;3.75;100.00;98584.22;4649669;30;20065;-79
2023/10/20 01:05:20;;;;;;;0.80;0.80;;;;;;;3.74;100.00;98575.41;4678206;30;20147;-79
2023/10/20 01:07:51;;;;;;;0.80;0.80;;;;;;;3.78;100.00;98586.50;4711827;30;20091;-79
2023/10/20 01:10:23;;;;;;;0.80;0.80;;;;;;;3.73;100.00;98580.97;4742057;30;20055;-79
2023/10/20 01:12:59;;;;;;;;;;;;;;;3.71;100.00;98583.84;4742586;30;20076;-79
2023/10/20 01:15:28;;;;;;;0.90;0.90;;;;;;;3.66;100.00;98586.31;4726836;30;20377;-79
2023/10/20 01:17:57;;;;;;;0.90;0.90;;;;;;;3.68;100.00;98581.59;4728010;30;20566;-79
2023/10/20 01:20:25;;;;;;;0.90;0.90;;;;;;;3.69;100.00;98583.22;4742870;30;20625;-80
2023/10/20 01:22:53;;;;;;;0.85;0.85;;;;;;;3.67;100.00;98580.78;4734188;30;20047;-79
2023/10/20 01:25:22;;;;;;;0.90;0.90;;;;;;;3.72;100.00;98582.81;4743439;30;20575;-79
2023/10/20 01:27:49;;;;;;;0.90;0.90;;;;;;;3.72;100.00;98585.47;4726273;30;20048;-79
2023/10/20 01:30:21;;;;;;;0.80;0.80;;;;;;;3.70;100.00;98584.88;4727967;30;20060;-79
2023/10/20 01:32:49;;;;;;;0.80;0.80;;;;;;;3.69;100.00;98583.22;4740938;30;20056;-78
2023/10/20 01:35:19;;;;;;;0.80;0.80;;;;;;;3.68;100.00;98586.94;4727706;30;20052;-80
2023/10/20 01:37:47;;;;;;;0.90;0.90;;;;;;;3.66;100.00;98579.13;4728177;30;20108;-80
2023/10/20 01:40:17;;;;;;;0.90;0.90;;;;;;;3.64;100.00;98591.03;4712622;30;20592;-80
2023/10/20 01:42:46;;;;;;;0.90;0.90;;;;;;;3.60;100.00;98581.84;4712179;30;20063;-78
2023/10/20 01:45:14;;;;;;;0.90;0.90;;;;;;;3.61;100.00;98596.81;4728638;30;20060;-78
2023/10/20 01:47:43;;;;;;;0.80;0.80;;;;;;;3.62;100.00;98598.44;4728517;30;20544;-79
2023/10/20 01:50:12;;;;;;;0.80;0.80;;;;;;;3.64;100.00;98607.06;4712310;30;20060;-79
2023/10/20 01:52:40;;;;;;;0.80;0.80;;;;;;;3.67;100.00;98595.97;4724372;30;20194;-80
2023/10/20 01:55:09;;;;;;;0.85;0.85;;;;;;;3.72;100.00;98604.16;4722009;30;20057;-79
2023/10/20 01:57:38;;;;;;;0.80;0.80;;;;;;;3.75;100.00;98601.09;4721025;30;20092;-79
2023/10/20 02:00:13;;;;;;;0.85;0.85;;;;;;;3.75;100.00;98602.91;4723283;30;20089;-78
2023/10/20 02:02:44;;;;;;;0.90;0.90;;;;;;;3.76;100.00;98607.25;4693589;30;20062;-79
2023/10/20 02:05:13;;;;;;;0.80;0.80;;;;;;;3.69;100.00;98604.59;4706748;30;20437;-78
2023/10/20 02:07:42;;;;;;;0.90;0.90;;;;;;;3.65;100.00;98606.06;4709213;30;20063;-79
2023/10/20 02:10:10;;;;;;;0.80;0.80;;;;;;;3.60;100.00;98614.69;4709406;30;20065;-79
2023/10/20 02:12:39;;;;;;;0.82;0.82;;;;;;;3.60;100.00;98604.00;4731259;30;20080;-79
2023/10/20 02:15:09;;;;;;;0.90;0.90;;;;;;;3.65;100.00;98614.06;4697833;30;20057;-78
2023/10/20 02:17:37;;;;;;;0.90;0.90;;;;;;;3.66;100.00;98615.69;4712613;30;20058;-77
2023/10/20 02:20:07;;;;;;;0.90;0.90;;;;;;;3.67;100.00;98612.81;4698342;30;20095;-79
2023/10/20 02:22:38;;;;;;;0.73;0.73;;;;;;;3.71;100.00;98615.06;4683872;30;20085;-79
2023/10/20 02:25:09;;;;;;;0.80;0.80;;;;;;;3.69;100.00;98609.91;4700655;30;20065;-79
2023/10/20 02:27:42;;;;;;;0.80;0.80;;;;;;;3.66;100.00;98608.50;4697815;30;20159;-79
2023/10/20 02:30:12;;;;;;;0.90;0.90;;;;;;;3.68;100.00;98613.63;4683097;30;20062;-79
2023/10/20 02:32:42;;;;;;;0.80;0.80;;;;;;;3.68;100.00;98614.44;4669708;30;20544;-80
2023/10/20 02:35:11;;;;;;;0.80;0.80;;;;;;;3.72;100.00;98617.50;4698228;30;20058;-79
2023/10/20 02:37:38;;;;;;;0.80;0.80;;;;;;;3.73;100.00;98618.34;4684839;30;20063;-79
2023/10/20 02:40:07;;;;;;;0.75;0.75;;;;;;;3.68;100.00;98609.09;4679780;30;20466;-80
2023/10/20 02:42:38;;;;;;;0.82;0.82;;;;;;;3.69;100.00;98613.41;4701063;30;20077;-79
2023/10/20 02:45:10;;;;;;;0.80;0.80;;;;;;;3.65;100.00;98604.19;4697543;30;20133;-79
2023/10/20 02:47:39;;;;;;;0.80;0.80;;;;;;;3.65;100.00;98611.38;4700733;30;20145;-79
2023/10/20 02:50:08;;;;;;;0.90;0.90;;;;;;;3.64;100.00;98604.38;4686767;30;20147;-80
2023/10/20 02:52:35;;;;;;;0.80;0.80;;;;;;;3.70;100.00;98606.25;4684234;30;20069;-78
2023/10/20 02:55:05;;;;;;;0.80;0.80;;;;;;;3.70;100.00;98611.56;4686726;30;20049;-77
2023/10/20 02:57:36;;;;;;;0.82;0.82;;;;;;;3.71;100.00;98612.38;4704444;30;20167;-79
2023/10/20 03:00:10;;;;;;;0.80;0.80;;;;;;;3.72;100.00;98603.34;4713627;30;20064;-80
2023/10/20 03:02:38;;;;;;;0.80;0.80;;;;;;;3.71;100.00;98599.84;4743491;30;20083;-78
2023/10/20 03:08:50;;;;;;;0.90;0.90;;;;;;;3.68;100.00;98603.78;4735006;30;20156;-80
2023/10/20 03:11:17;;;;;;;0.80;0.80;;;;;;;3.67;100.00;98607.47;4727074;30;20053;-80
2023/10/20 03:13:47;;;;;;;0.82;0.82;;;;;;;3.62;100.00;98598.44;4712761;30;20144;-79
2023/10/20 03:16:18;;;;;;;0.80;0.80;;;;;;;3.61;100.00;98605.63;4733030;30;20059;-78
2023/10/20 03:18:46;;;;;;;0.80;0.80;;;;;;;3.59;100.00;98609.53;4703752;30;20059;-79
2023/10/20 03:21:18;;;;;;;0.80;0.80;;;;;;;3.57;100.00;98607.09;4712867;30;20600;-79
2023/10/20 03:23:57;;;;;;;0.80;0.80;;;;;;;3.62;100.00;98609.97;4710759;30;20060;-79
2023/10/20 03:26:25;;;;;;;0.80;0.80;;;;;;;3.63;100.00;98606.25;4701700;30;20533;-79
2023/10/20 03:28:53;;;;;;;0.80;0.80;;;;;;;3.66;100.00;98610.34;4714460;30;20049;-79
2023/10/20 03:31:21;;;;;;;0.90;0.90;;;;;;;3.69;100.00;98612.59;4702277;30;20449;-79
2023/10/20 03:33:51;;;;;;;0.90;0.90;;;;;;;3.65;100.00;98614.88;4702123;30;20534;-79
2023/10/20 03:36:19;;;;;;;0.80;0.80;;;;;;;3.58;100.00;98613.25;4690538;30;20139;-78
2023/10/20 03:38:49;;;;;;;0.88;0.88;;;;;;;3.55;100.00;98621.66;4702826;30;20195;-78
2023/10/20 03:41:17;;;;;;;0.95;0.95;;;;;;;3.44;100.00;98626.63;4690411;30;20064;-78
2023/10/20 03:43:46;;;;;;;0.90;0.90;;;;;;;3.36;100.00;98626.81;4668676;30;20064;-79
2023/10/20 03:46:16;;;;;;;0.80;0.80;;;;;;;3.27;100.00;98628.06;4681922;30;20089;-78
2023/10/20 03:48:45;;;;;;;0.90;0.90;;;;;;;3.19;100.00;98626.44;4681488;30;20061;-78
2023/10/20 03:51:18;;;;;;;0.90;0.90;;;;;;;3.15;100.00;98627.84;4679051;30;20174;-80
2023/10/20 03:53:50;;;;;;;0.80;0.80;;;;;;;3.10;100.00;98633.00;4671465;30;20121;-78
2023/10/20 03:56:19;;;;;;;0.90;0.90;;;;;;;3.07;100.00;98630.75;4657533;30;20058;-79
2023/10/20 03:58:48;;;;;;;0.82;0.82;;;;;;;3.07;100.00;98636.06;4645896;30;20055;-78
2023/10/20 04:01:21;;;;;;;0.90;0.90;;;;;;;3.05;100.00;98640.78;4641994;30;20054;-79
2023/10/20 04:03:51;;;;;;;0.82;0.82;;;;;;;3.02;100.00;98643.88;4666454;30;20561;-78
2023/10/20 04:06:20;;;;;;;0.88;0.88;;;;;;;2.98;100.00;98654.09;4645727;30;20158;-79
2023/10/20 04:09:01;;;;;;;0.90;0.90;;;;;;;2.91;100.00;98631.13;4643699;30;20055;-79
2023/10/20 04:11:34;;;;;;;0.93;0.93;;;;;;;2.87;100.00;98646.72;4650351;30;20059;-78
2023/10/20 04:14:06;;;;;;;0.90;0.90;;;;;;;2.86;100.00;98642.44;4649099;30;20062;-76
2023/10/20 04:16:39;;;;;;;0.90;0.90;;;;;;;2.86;100.00;98647.75;4647747;30;20098;-79
2023/10/20 04:19:16;;;;;;;0.95;0.95;;;;;;;2.82;100.00;98644.66;4630949;30;20055;-79
2023/10/20 04:21:44;;;;;;;0.80;0.80;;;;;;;2.81;100.00;98650.19;4651528;30;20054;-79
2023/10/20 04:24:13;;;;;;;0.90;0.90;;;;;;;2.80;100.00;98652.03;4665792;30;20490;-78
2023/10/20 04:26:55;;;;;;;0.90;0.90;;;;;;;2.81;100.00;98650.19;4664581;30;20065;-79
2023/10/20 04:29:35;;;;;;;0.80;0.80;;;;;;;2.78;100.00;98650.59;4589219;31;20198;-79
2023/10/20 04:44:19;;;;;;;0.90;0.90;;;;;;;2.90;100.00;98640.97;4594803;31;20052;-79
2023/10/20 04:47:36;;;;;;;0.98;0.98;;;;;;;2.85;100.00;98646.09;4578359;31;20603;-80
2023/10/20 04:58:11;;;;;;;0.90;0.90;;;;;;;2.88;100.00;98659.00;4597660;31;20150;-78
2023/10/20 05:00:43;;;;;;;0.90;0.90;;;;;;;2.92;100.00;98654.94;4639938;30;20067;-79
2023/10/20 05:03:53;;;;;;;;;;;;;;;2.97;100.00;98649.81;4654056;30;20165;-79
2023/10/20 05:06:42;;;;;;;0.90;0.90;;;;;;;2.98;100.00;98658.63;4670255;30;19935;-78
2023/10/20 05:09:32;;;;;;;0.90;0.90;;;;;;;2.98;100.00;98659.44;4656705;30;20058;-79
2023/10/20 05:12:33;;;;;;;0.90;0.90;;;;;;;3.01;100.00;98664.38;4669588;30;20486;-78
2023/10/20 05:15:26;;;;;;;0.90;0.90;;;;;;;3.07;100.00;98670.75;4657691;30;20144;-78
2023/10/20 05:17:58;;;;;;;0.80;0.80;;;;;;;3.14;100.00;98670.72;4640680;30;20172;-78
2023/10/20 05:20:40;;;;;;;0.80;0.80;;;;;;;3.18;100.00;98671.97;4653128;30;20118;-77
2023/10/20 05:23:15;;;;;;;0.90;0.90;;;;;;;3.16;100.00;98668.69;4642569;30;20059;-78
2023/10/20 05:25:50;;;;;;;0.80;0.80;;;;;;;3.13;100.00;98663.75;4629068;30;20154;-79
2023/10/20 05:28:41;;;;;;;0.80;0.80;;;;;;;3.14;100.00;98671.56;4613999;30;20063;-79
2023/10/20 05:31:13;;;;;;;0.90;0.90;;;;;;;3.17;100.00;98662.34;4602713;31;20100;-79
2023/10/20 05:33:45;;;;;;;0.90;0.90;;;;;;;3.15;100.00;98667.03;4609357;31;20068;-78
2023/10/20 05:36:15;;;;;;;0.90;0.90;;;;;;;3.17;100.00;98670.34;4596719;31;20067;-78
2023/10/20 05:38:42;;;;;;;0.80;0.80;;;;;;;3.21;100.00;98669.69;4643140;30;20059;-81
2023/10/20 05:41:14;;;;;;;0.90;0.90;;;;;;;3.27;100.00;98670.75;4644994;30;20067;-78
2023/10/20 05:43:41;;;;;;;0.90;0.90;;;;;;;3.28;100.00;98663.56;4675389;30;20155;-81
2023/10/20 05:46:17;;;;;;;0.80;0.80;;;;;;;3.41;100.00;98672.38;4711955;30;20053;-82
2023/10/20 05:49:05;;;;;;;0.80;0.80;;;;;;;3.50;100.00;98667.66;4702513;30;20171;-79
2023/10/20 05:51:52;;;;;;;0.80;0.80;;;;;;;3.60;100.00;98664.56;4713074;30;20061;-80
2023/10/20 05:54:24;;;;;;;0.77;0.77;;;;;;;3.66;100.00;98663.72;4703990;30;20061;-80
2023/10/20 05:56:54;;;;;;;0.90;0.90;;;;;;;3.75;100.00;98667.81;4714088;30;20072;-80
2023/10/20 05:59:31;;;;;;;0.90;0.90;;;;;;;3.81;100.00;98666.97;4703958;30;20057;-79
2023/10/20 06:01:58;;;;;;;0.80;0.80;;;;;;;3.86;100.00;98666.34;4715056;30;20081;-79
2023/10/20 06:04:26;;;;;;;0.80;0.80;;;;;;;3.88;100.00;98667.78;4706362;30;20076;-80
2023/10/20 06:06:56;;;;;;;0.80;0.80;;;;;;;3.93;100.00;98661.00;4696111;30;20502;-81
2023/10/20 06:09:25;;;;;;;0.80;0.80;;;;;;;3.95;100.00;98665.09;4700647;30;20060;-78
2023/10/20 06:11:55;;;;;;;0.80;0.80;;;;;;;3.97;100.00;98660.34;4700295;30;20054;-80
2023/10/20 06:14:25;;;;;;;0.90;0.90;;;;;;;3.99;100.00;98668.16;4697154;30;20542;-79
2023/10/20 06:16:53;;;;;;;0.90;0.90;;;;;;;3.98;100.00;98667.34;4684823;30;20089;-77
2023/10/20 06:19:21;;;;;;;0.80;0.80;;;;;;;3.96;100.00;98676.59;4700834;30;20061;-80
2023/10/20 06:22:00;;;;;;;0.90;0.90;;;;;;;4.04;100.00;98666.50;4684298;30;20733;-78
2023/10/20 06:24:37;;;;;;;0.80;0.80;;;;;;;4.05;100.00;98667.31;4672942;30;20077;-81
2023/10/20 06:27:08;;;;;;;0.90;0.90;;;;;;;4.03;100.00;98666.72;4687085;30;20540;-80
2023/10/20 06:29:48;;;;;;;0.80;0.80;;;;;;;4.13;100.00;98670.59;4707081;30;20063;-79
2023/10/20 06:35:19;;;;;;;0.82;0.82;;;;;;;4.33;100.00;98667.84;4703310;30;20099;-79
2023/10/20 06:38:04;;;;;;;0.90;0.90;;;;;;;4.43;100.00;98669.22;4680215;30;20058;-80
2023/10/20 06:40:37;;;;;;;0.80;0.80;;;;;;;4.52;100.00;98670.63;4607697;31;20071;-80
2023/10/20 06:43:06;;;;;;;0.80;0.80;;;;;;;4.58;100.00;98667.06;4632400;31;20063;-80
2023/10/20 06:45:34;;;;;;;0.80;0.80;;;;;;;4.50;100.00;98672.69;4635111;30;20097;-80
2023/10/20 06:48:05;;;;;;;0.90;0.90;;;;;;;4.43;100.00;98667.38;4635356;30;20116;-80
2023/10/20 06:50:34;;;;;;;0.90;0.90;;;;;;;4.47;100.00;98670.44;4631771;30;20083;-80
2023/10/20 06:53:04;;;;;;;0.80;0.80;;;;;;;4.54;100.00;98673.91;4632392;30;20140;-78
2023/10/20 06:55:36;;;;;;;0.73;0.73;;;;;;;4.48;100.00;98672.91;4618499;31;20062;-80
2023/10/20 06:58:25;;;;;;;0.80;0.80;;;;;;;4.50;100.00;98670.00;4615399;31;20059;-80
2023/10/20 07:00:54;;;;;;;0.80;0.80;;;;;;;4.57;100.00;98676.16;4592080;31;20158;-79
2023/10/20 07:03:33;;;;;;;0.90;0.90;;;;;;;4.63;100.00;98682.47;4635690;30;20519;-78
2023/10/20 07:06:11;;;;;;;0.80;0.80;;;;;;;4.66;100.00;98685.56;4663305;30;20148;-79
2023/10/20 07:08:42;;;;;;;0.80;0.80;;;;;;;4.66;100.00;98688.25;4665711;30;20133;-80
2023/10/20 07:11:15;;;;;;;0.80;0.80;;;;;;;4.74;100.00;98692.50;4663352;30;20070;-80
2023/10/20 07:13:47;;;;;;;0.80;0.80;;;;;;;4.80;100.00;98706.88;4662719;30;20515;-79
2023/10/20 07:16:17;;;;;;;0.90;0.90;;;;;;;4.80;100.00;98704.19;4623142;30;20067;-78
2023/10/20 07:18:44;;;;;;;0.90;0.90;;;;;;;4.73;100.00;98710.38;4629591;31;20059;-80
2023/10/20 07:21:11;;;;;;;0.80;0.80;;;;;;;4.76;100.00;98711.81;4641196;30;20123;-79
2023/10/20 07:23:41;;;;;;;0.80;0.80;;;;;;;4.75;100.00;98710.19;4629412;30;20146;-79
2023/10/20 07:26:13;;;;;;;0.82;0.82;;;;;;;4.75;100.00;98711.00;4629042;30;20076;-79
2023/10/20 07:28:42;;;;;;;0.80;0.80;;;;;;;4.80;100.00;98706.88;4627997;30;20183;-78
2023/10/20 07:31:15;;;;;;;0.80;0.80;;;;;;;4.85;100.00;98715.06;4615172;30;20463;-79
2023/10/20 07:33:45;;;;;;;0.80;0.80;;;;;;;4.95;100.00;98710.06;4615007;30;20560;-79
2023/10/20 07:36:12;;;;;;;0.80;0.80;;;;;;;5.06;100.00;98712.03;4629016;30;20063;-79
2023/10/20 07:38:39;;;;;;;0.80;0.80;;;;;;;5.13;100.00;98718.16;4677210;30;20290;-79
2023/10/20 07:41:07;;;;;;;0.80;0.80;;;;;;;5.25;100.00;98712.13;4684909;30;20084;-78
2023/10/20 07:43:35;;;;;;;0.90;0.90;;;;;;;5.36;99.68;98712.25;4714483;30;20065;-79
2023/10/20 07:46:03;;;;;;;0.90;0.90;;;;;;;5.57;99.21;98719.09;4708750;30;20148;-80
2023/10/20 07:48:33;;;;;;;0.80;0.80;;;;;;;5.89;98.03;98719.00;4707288;30;20057;-80
2023/10/20 07:51:02;;;;;;;0.90;0.90;;;;;;;6.13;96.77;98720.03;4708852;30;20057;-81
2023/10/20 07:53:29;;;;;;;0.90;0.90;;;;;;;6.21;95.50;98718.91;4736719;30;20165;-80
2023/10/20 07:55:56;;;;;;;0.70;0.70;;;;;;;6.05;94.58;98707.75;4742981;30;20525;-80
2023/10/20 07:58:24;;;;;;;0.80;0.80;;;;;;;5.89;94.10;98716.31;4740660;30;20061;-81
2023/10/20 08:00:51;;;;;;;0.80;0.80;;;;;;;5.68;94.34;98719.41;4744326;30;20063;-79
2023/10/20 08:03:18;;;;;;;0.90;0.90;;;;;;;5.52;94.24;98721.59;4750623;30;20064;-79
2023/10/20 08:05:46;;;;;;;0.80;0.80;;;;;;;5.37;94.83;98721.94;4745733;30;20451;-79
2023/10/20 08:08:15;;;;;;;0.90;0.90;;;;;;;5.50;94.38;98728.22;4715471;30;20060;-79
2023/10/20 08:10:42;;;;;;;0.90;0.90;;;;;;;5.67;93.46;98723.13;4747080;30;20130;-79
2023/10/20 08:13:10;;;;;;;1.10;1.10;;;;;;;6.99;91.65;98725.34;4742326;30;20059;-78
2023/10/20 08:15:38;;;;;;;0.90;0.90;;;;;;;7.76;86.87;98730.78;4760753;30;20061;-79
2023/10/20 08:18:07;;;;;;;0.90;0.90;;;;;;;7.43;86.04;98726.78;4750796;30;20093;-79
2023/10/20 08:20:34;;;;;;;0.80;0.80;;;;;;;6.91;86.24;98730.00;4751539;30;20048;-79
2023/10/20 08:23:02;;;;;;;0.90;0.90;;;;;;;6.62;86.89;98731.63;4739144;30;20114;-79
2023/10/20 08:25:30;;;;;;;0.80;0.80;;;;;;;6.41;87.57;98726.72;4749100;30;20056;-79
2023/10/20 08:27:57;;;;;;;0.88;0.88;;;;;;;6.05;88.18;98721.16;4750229;30;20056;-79
2023/10/20 08:30:25;;;;;;;0.80;0.80;;;;;;;5.83;88.50;98722.56;4765052;30;20136;-78
2023/10/20 08:32:52;;;;;;;0.80;0.80;;;;;;;5.86;88.55;98724.78;4751164;30;20056;-80
2023/10/20 08:35:19;;;;;;;0.90;0.90;;;;;;;5.90;88.22;98726.00;4742505;30;20057;-79
2023/10/20 08:37:46;;;;;;;0.80;0.80;;;;;;;5.92;88.61;98734.63;4744381;30;20170;-79
2023/10/20 08:40:13;;;;;;;0.90;0.90;;;;;;;5.97;88.51;98734.81;4751270;30;20052;-79
2023/10/20 08:42:41;;;;;;;0.88;0.88;;;;;;;5.95;88.69;98728.03;4751057;30;20470;-80
2023/10/20 08:45:11;;;;;;;0.88;0.88;;;;;;;5.79;88.32;98738.25;4751176;30;20052;-79
2023/10/20 08:47:42;;;;;;;0.80;0.80;;;;;;;5.71;88.40;98748.41;4741401;30;20465;-79
2023/10/20 08:50:10;;;;;;;0.80;0.80;;;;;;;5.75;88.58;98741.59;4739764;30;20060;-79
2023/10/20 08:53:30;;;;;;;0.85;0.85;;;;;;;5.73;88.23;98744.50;4750817;30;20068;-81
2023/10/20 08:56:02;;;;;;;0.90;0.90;;;;;;;5.58;87.94;98731.44;4751178;30;20115;-81
2023/10/20 08:58:36;;;;;;;0.80;0.80;;;;;;;5.46;87.77;98733.16;4738187;30;20056;-79
2023/10/20 09:01:11;;;;;;;0.80;0.80;;;;;;;5.30;87.71;98741.75;4740131;30;20052;-79
2023/10/20 09:03:55;;;;;;;0.80;0.80;;;;;;;5.02;88.45;98736.78;4728887;30;20116;-79
2023/10/20 09:06:30;;;;;;;0.80;0.80;;;;;;;4.90;89.11;98728.63;4710994;30;20061;-79
2023/10/20 09:09:01;;;;;;;0.80;0.80;;;;;;;4.91;89.71;98730.25;4683957;30;20176;-80
2023/10/20 09:11:34;;;;;;;0.85;0.85;;;;;;;4.92;90.10;98735.38;4683801;30;20130;-79
2023/10/20 09:14:09;;;;;;;0.80;0.80;;;;;;;4.91;90.26;98740.94;4691031;30;20510;-79
2023/10/20 09:20:11;;;;;;;0.90;0.90;;;;;;;4.80;90.69;98741.63;4685215;30;20498;-79
2023/10/20 09:23:15;;;;;;;0.80;0.80;;;;;;;4.78;90.76;98749.84;4661035;30;20058;-78
2023/10/20 09:25:49;;;;;;;0.80;0.80;;;;;;;4.82;90.81;98740.38;4660729;30;20061;-80
2023/10/20 09:28:33;;;;;;;0.80;0.80;;;;;;;4.85;90.80;98749.81;4632581;30;20125;-80
2023/10/20 09:31:22;;;;;;;0.80;0.80;;;;;;;4.83;91.21;98754.56;4689178;30;20077;-79
2023/10/20 09:34:28;;;;;;;0.90;0.90;;;;;;;4.80;91.71;98750.47;4599338;31;20557;-79
2023/10/20 09:37:17;;;;;;;0.80;0.80;;;;;;;4.91;92.45;98749.81;4561676;31;20065;-78
2023/10/20 09:40:11;;;;;;;0.80;0.80;;;;;;;5.00;93.40;98761.06;4560682;31;20522;-79
2023/10/20 09:43:10;;;;;;;0.80;0.80;;;;;;;5.03;94.26;98755.28;4541841;31;20126;-79
2023/10/20 09:46:03;;;;;;;0.80;0.80;;;;;;;5.02;94.64;98752.84;4568310;31;20139;-82
2023/10/20 09:48:49;;;;;;;0.80;0.80;;;;;;;4.99;95.38;98748.72;4576523;31;20144;-79
2023/10/20 09:51:35;;;;;;;0.80;0.80;;;;;;;4.93;96.05;98746.91;4544338;31;20591;-79
2023/10/20 09:54:11;;;;;;;0.80;0.80;;;;;;;4.72;96.19;98732.81;4545538;31;20065;-79
2023/10/20 09:57:08;;;;;;;0.85;0.85;;;;;;;4.50;97.15;98744.84;4569248;31;20069;-81
2023/10/20 09:59:40;;;;;;;0.80;0.80;;;;;;;4.55;98.05;98742.34;4518542;31;20649;-80
2023/10/20 10:02:08;;;;;;;0.80;0.80;;;;;;;4.72;98.19;98740.84;4478723;31;20085;-80
2023/10/20 10:04:54;;;;;;;0.80;0.80;;;;;;;4.89;98.02;98735.00;4506706;31;20063;-79
2023/10/20 10:07:41;;;;;;;0.90;0.90;;;;;;;4.90;97.57;98731.28;4495924;31;20447;-80
2023/10/20 10:10:49;;;;;;;0.90;0.90;;;;;;;4.86;98.09;98724.72;4500776;31;20068;-80
2023/10/20 10:13:35;;;;;;;0.90;0.90;;;;;;;4.97;98.52;98724.06;4493649;31;20205;-79
2023/10/20 10:16:10;;;;;;;0.80;0.80;;;;;;;5.13;98.16;98728.06;4495817;31;20176;-80
2023/10/20 10:18:45;;;;;;;0.90;0.90;;;;;;;5.25;97.90;98731.69;4511932;31;20544;-81
2023/10/20 10:21:32;;;;;;;0.80;0.80;;;;;;;5.30;98.05;98729.19;4532461;31;20493;-81
2023/10/20 10:25:37;;;;;;;0.80;0.80;;;;;;;5.24;97.41;98738.09;4560859;31;20064;-79
2023/10/20 10:29:13;;;;;;;0.80;0.80;;;;;;;5.16;97.74;98738.31;4607703;31;20072;-79
2023/10/20 10:32:33;;;;;;;0.80;0.80;;;;;;;4.92;97.87;98754.09;4596264;31;20060;-81
2023/10/20 10:36:01;;;;;;;0.77;0.77;;;;;;;4.76;98.85;98754.59;4646409;30;20664;-79
2023/10/20 10:39:27;;;;;;;0.80;0.80;;;;;;;4.88;99.79;98760.09;4640508;30;20062;-79
2023/10/20 10:42:57;;;;;;;0.70;0.70;;;;;;;4.92;99.97;98753.28;4640031;30;20059;-79
2023/10/20 10:45:45;;;;;;;0.80;0.80;;;;;;;4.91;100.00;98756.97;4662271;30;20054;-80
2023/10/20 10:48:33;;;;;;;0.80;0.80;;;;;;;4.93;100.00;98758.41;4618297;30;20068;-80
2023/10/20 10:58:14;;;;;;;0.80;0.80;;;;;;;4.75;100.00;98761.78;4634024;30;20080;-80
2023/10/20 11:01:01;;;;;;;0.90;0.90;;;;;;;4.64;100.00;98748.28;4621226;30;20525;-78
2023/10/20 11:03:33;;;;;;;0.80;0.80;;;;;;;4.65;100.00;98753.41;4591665;31;20146;-79
2023/10/20 11:06:01;;;;;;;0.80;0.80;;;;;;;4.73;100.00;98757.69;4602247;31;20163;-80
2023/10/20 11:08:29;;;;;;;0.90;0.90;;;;;;;4.92;100.00;98764.00;4611236;30;20071;-78
2023/10/20 11:11:21;;;;;;;0.80;0.80;;;;;;;5.17;99.55;98767.53;4633985;30;20151;-80
2023/10/20 11:15:00;;;;;;;0.80;0.80;;;;;;;5.44;98.36;98762.00;4643441;30;20067;-80
2023/10/20 11:17:49;;;;;;;0.80;0.80;;;;;;;5.47;97.84;98752.72;4624304;30;20063;-79
2023/10/20 11:20:38;;;;;;;0.90;0.90;;;;;;;5.51;97.79;98756.59;4635333;30;20062;-79
2023/10/20 11:23:56;;;;;;;0.90;0.90;;;;;;;5.51;98.03;98749.41;4608353;31;20540;-79
2023/10/20 11:26:28;;;;;;;0.80;0.80;;;;;;;5.46;97.72;98749.22;4628636;30;20062;-79
2023/10/20 11:29:15;;;;;;;0.80;0.80;;;;;;;5.44;97.58;98748.63;4626255;30;20121;-80
2023/10/20 11:32:00;;;;;;;0.80;0.80;;;;;;;5.46;97.39;98743.06;4596567;30;20091;-78
2023/10/20 11:34:28;;;;;;;0.80;0.80;;;;;;;5.41;96.68;98749.06;4592029;31;20503;-78
2023/10/20 11:37:11;;;;;;;0.80;0.80;;;;;;;5.39;96.56;98754.66;4620910;30;20056;-78
2023/10/20 11:39:51;;;;;;;0.80;0.80;;;;;;;5.32;95.67;98748.53;4622188;30;20116;-78
2023/10/20 11:42:22;;;;;;;0.70;0.70;;;;;;;5.32;95.32;98758.41;4642760;30;20488;-78
2023/10/20 11:45:06;;;;;;;0.75;0.75;;;;;;;5.28;94.95;98758.00;4587898;31;20067;-78
2023/10/20 11:47:39;;;;;;;;;;;;;;;5.36;95.02;98765.75;4628942;31;20067;-78
2023/10/20 11:50:08;;;;;;;0.90;0.90;;;;;;;5.40;94.71;98760.81;4614397;30;19932;-78
2023/10/20 11:52:39;;;;;;;0.88;0.88;;;;;;;5.53;94.13;98743.84;4627797;30;20063;-79
2023/10/20 11:55:08;;;;;;;0.90;0.90;;;;;;;5.58;93.78;98747.50;4628014;30;20428;-79
2023/10/20 11:57:37;;;;;;;0.80;0.80;;;;;;;5.58;93.85;98739.47;4641274;30;20055;-79
2023/10/20 12:00:09;;;;;;;0.80;0.80;;;;;;;5.67;93.80;98748.03;4625798;30;20076;-79
2023/10/20 12:02:54;;;;;;;0.80;0.80;;;;;;;5.60;93.34;98734.72;4583156;31;20061;-79
2023/10/20 12:05:37;;;;;;;0.80;0.80;;;;;;;5.54;93.37;98742.78;4563590;31;20355;-79
2023/10/20 12:08:24;;;;;;;0.80;0.80;;;;;;;5.46;93.70;98743.88;4576071;31;20472;-77
2023/10/20 12:11:05;;;;;;;0.80;0.80;;;;;;;5.48;93.59;98744.47;4592015;31;20060;-78
2023/10/20 12:13:48;;;;;;;0.90;0.90;;;;;;;5.46;93.89;98749.22;4597472;30;20459;-78
2023/10/20 12:16:19;;;;;;;0.80;0.80;;;;;;;5.44;94.20;98751.28;4658021;30;20058;-78
2023/10/20 12:18:51;;;;;;;0.80;0.80;;;;;;;5.38;93.84;98744.16;4659091;30;20058;-78
2023/10/20 12:21:21;;;;;;;0.80;0.80;;;;;;;5.28;93.66;98743.81;4648590;30;20061;-78
2023/10/20 12:24:17;;;;;;;0.70;0.70;;;;;;;5.21;93.68;98739.31;4642114;30;20070;-78
2023/10/20 12:26:44;;;;;;;0.70;0.70;;;;;;;5.12;93.95;98737.13;4645696;30;20062;-79
2023/10/20 12:29:12;;;;;;;0.85;0.85;;;;;;;5.12;94.51;98739.81;4644183;30;20063;-78
2023/10/20 12:31:40;;;;;;;0.85;0.85;;;;;;;5.07;94.54;98745.78;4631168;30;20073;-79
2023/10/20 12:34:09;;;;;;;0.77;0.77;;;;;;;5.07;94.77;98745.78;4645137;30;20480;-78
2023/10/20 12:36:36;;;;;;;0.80;0.80;;;;;;;5.06;95.03;98743.31;4650975;30;20065;-79
2023/10/20 12:39:06;;;;;;;0.80;0.80;;;;;;;5.02;95.48;98742.94;4655693;30;20256;-78
2023/10/20 12:41:33;;;;;;;0.80;0.80;;;;;;;5.00;95.79;98735.13;4698366;30;20064;-80
2023/10/20 12:44:02;;;;;;;0.90;0.90;;;;;;;5.04;96.16;98743.56;4713797;30;20514;-79
2023/10/20 12:46:30;;;;;;;0.80;0.80;;;;;;;5.08;96.23;98754.63;4688399;30;20084;-80
2023/10/20 12:49:08;;;;;;;0.70;0.70;;;;;;;5.05;96.62;98747.03;4689465;30;20064;-79
2023/10/20 12:51:43;;;;;;;0.80;0.80;;;;;;;5.02;96.52;98750.16;4687634;30;20080;-81